createdAt,value
2022-10-20T00:00:05.864Z,1.40
2022-10-20T00:02:33.129Z,1.50
2022-10-20T00:05:05.162Z,1.40
2022-10-20T00:07:32.943Z,1.60
2022-10-20T00:10:01.160Z,1.50
2022-10-20T00:12:54.452Z,1.63
2022-10-20T00:15:22.941Z,1.23
2022-10-20T00:18:00.047Z,2.05
2022-10-20T00:20:32.672Z,1.42
2022-10-20T00:23:02.650Z,1.35
2022-10-20T00:25:32.831Z,1.27
2022-10-20T00:28:02.866Z,1.55
2022-10-20T00:30:32.989Z,1.23
2022-10-20T00:33:02.866Z,1.70
2022-10-20T00:35:32.572Z,1.45
2022-10-20T00:38:10.055Z,1.40
2022-10-20T00:40:37.065Z,1.33
2022-10-20T00:43:04.972Z,1.50
2022-10-20T00:45:32.951Z,1.50
2022-10-20T00:48:06.508Z,1.27
2022-10-20T00:50:41.543Z,1.67
2022-10-20T00:53:10.338Z,1.48
2022-10-20T00:55:46.764Z,1.42
2022-10-20T00:58:15.384Z,1.52
2022-10-20T01:00:45.197Z,1.40
2022-10-20T01:06:18.290Z,1.27
2022-10-20T01:08:45.227Z,1.50
2022-10-20T01:11:26.192Z,1.50
2022-10-20T01:14:28.671Z,1.50
2022-10-20T01:17:12.270Z,1.42
2022-10-20T01:20:26.089Z,1.20
2022-10-20T01:23:34.592Z,1.65
2022-10-20T01:26:30.847Z,1.50
2022-10-20T01:29:24.776Z,1.33
2022-10-20T01:32:09.807Z,1.08
2022-10-20T01:34:49.177Z,1.40
2022-10-20T01:37:49.619Z,1.30
2022-10-20T01:40:47.869Z,1.30
2022-10-20T01:43:18.980Z,1.42
2022-10-20T01:45:49.245Z,1.50
2022-10-20T01:48:21.307Z,1.30
2022-10-20T01:54:10.258Z,1.73
2022-10-20T01:56:59.638Z,2.05
2022-10-20T02:00:06.347Z,1.98
2022-10-20T02:03:05.642Z,1.60
2022-10-20T02:06:10.765Z,1.58
2022-10-20T02:08:52.533Z,1.83
2022-10-20T02:14:29.790Z,1.90
2022-10-20T02:17:22.932Z,1.20
2022-10-20T02:19:52.911Z,1.42
2022-10-20T02:22:22.494Z,1.80
2022-10-20T02:24:56.286Z,1.33
2022-10-20T02:27:29.515Z,1.98
2022-10-20T02:30:01.943Z,2.03
2022-10-20T02:32:31.759Z,1.50
2022-10-20T02:35:03.496Z,1.60
2022-10-20T02:37:35.499Z,1.80
2022-10-20T02:40:04.233Z,2.03
2022-10-20T02:42:31.012Z,1.65
2022-10-20T02:44:59.008Z,1.90
2022-10-20T02:47:26.936Z,1.55
2022-10-20T02:49:54.996Z,1.45
2022-10-20T02:52:22.958Z,1.48
2022-10-20T02:54:51.069Z,1.70
2022-10-20T02:57:19.026Z,1.70
2022-10-20T02:59:46.930Z,1.70
2022-10-20T03:02:20.061Z,1.50
2022-10-20T03:04:47.095Z,1.70
2022-10-20T03:10:07.318Z,1.58
2022-10-20T03:12:34.967Z,1.77
2022-10-20T03:15:03.055Z,1.92
2022-10-20T03:17:30.923Z,1.90
2022-10-20T03:20:03.972Z,1.45
2022-10-20T03:22:30.959Z,1.83
2022-10-20T03:24:58.961Z,1.80
2022-10-20T03:27:26.995Z,1.88
2022-10-20T03:29:59.965Z,1.55
2022-10-20T03:32:28.382Z,1.83
2022-10-20T03:34:56.928Z,2.08
2022-10-20T03:37:50.977Z,1.50
2022-10-20T03:40:28.156Z,1.55
2022-10-20T03:42:54.941Z,1.77
2022-10-20T03:46:13.831Z,2.03
2022-10-20T03:48:41.289Z,1.90
2022-10-20T03:51:12.020Z,2.30
2022-10-20T03:53:39.177Z,1.60
2022-10-20T03:56:09.084Z,2.20
2022-10-20T03:58:36.939Z,1.92
2022-10-20T04:01:14.512Z,2.00
2022-10-20T04:03:43.772Z,1.88
2022-10-20T04:06:37.131Z,2.05
2022-10-20T04:09:05.065Z,2.00
2022-10-20T04:11:33.209Z,2.20
2022-10-20T04:14:04.973Z,1.77
2022-10-20T04:16:32.991Z,2.17
2022-10-20T04:19:01.030Z,2.40
2022-10-20T04:21:28.927Z,2.10
2022-10-20T04:24:06.015Z,2.00
2022-10-20T04:26:38.050Z,1.92
2022-10-20T04:29:04.939Z,1.88
2022-10-20T04:31:32.927Z,2.25
2022-10-20T04:34:28.825Z,2.22
2022-10-20T04:36:59.790Z,2.30
2022-10-20T04:42:27.763Z,2.47
2022-10-20T04:45:22.993Z,2.42
2022-10-20T04:47:52.825Z,2.30
2022-10-20T04:50:28.676Z,2.47
2022-10-20T04:53:22.809Z,2.75
2022-10-20T04:55:57.205Z,1.77
2022-10-20T04:58:27.558Z,2.35
2022-10-20T05:01:05.707Z,2.45
2022-10-20T05:03:36.034Z,2.40
2022-10-20T05:06:15.876Z,2.42
2022-10-20T05:08:49.122Z,2.17
2022-10-20T05:11:20.174Z,2.22
2022-10-20T05:13:48.950Z,2.45
2022-10-20T05:16:47.982Z,2.10
2022-10-20T05:19:14.943Z,2.30
2022-10-20T05:21:43.030Z,2.17
2022-10-20T05:24:21.348Z,2.03
2022-10-20T05:26:51.112Z,2.30
2022-10-20T05:29:18.983Z,2.35
2022-10-20T05:31:52.001Z,2.53
2022-10-20T05:34:18.968Z,2.45
2022-10-20T05:36:58.713Z,2.55
2022-10-20T05:39:26.961Z,2.20
2022-10-20T05:41:58.961Z,2.38
2022-10-20T05:44:26.975Z,2.38
2022-10-20T05:46:54.949Z,2.72
2022-10-20T05:49:23.508Z,2.40
2022-10-20T05:51:51.025Z,2.42
2022-10-20T05:54:19.153Z,2.40
2022-10-20T05:56:46.968Z,2.53
2022-10-20T05:59:15.073Z,1.63
2022-10-20T06:01:49.254Z,2.90
2022-10-20T06:04:20.006Z,2.45
2022-10-20T06:06:48.809Z,2.47
2022-10-20T06:09:18.392Z,2.50
2022-10-20T06:11:49.965Z,2.45
2022-10-20T06:14:22.707Z,3.42
2022-10-20T06:16:52.378Z,2.60
2022-10-20T06:19:19.487Z,2.63
2022-10-20T06:21:48.899Z,3.00
2022-10-20T06:24:18.581Z,2.85
2022-10-20T06:26:51.485Z,2.83
2022-10-20T06:29:44.974Z,2.58
2022-10-20T06:34:44.998Z,2.50
2022-10-20T06:37:14.892Z,2.88
2022-10-20T06:39:48.005Z,2.72
2022-10-20T06:42:14.973Z,2.50
2022-10-20T06:47:39.438Z,2.05
2022-10-20T06:50:12.689Z,2.30
2022-10-20T06:52:40.939Z,2.35
2022-10-20T06:55:09.357Z,2.50
2022-10-20T06:57:37.011Z,2.13
2022-10-20T07:00:14.527Z,2.20
2022-10-20T07:02:48.081Z,2.60
2022-10-20T07:05:15.087Z,2.00
2022-10-20T07:07:43.031Z,2.67
2022-10-20T07:10:36.955Z,2.03
2022-10-20T07:13:09.018Z,2.20
2022-10-20T07:15:36.989Z,2.25
2022-10-20T07:18:05.008Z,3.00
2022-10-20T07:20:33.770Z,2.60
2022-10-20T07:23:00.987Z,2.38
2022-10-20T07:25:35.320Z,2.70
2022-10-20T07:28:02.964Z,2.35
2022-10-20T07:30:30.977Z,2.40
2022-10-20T07:32:59.016Z,2.05
2022-10-20T07:35:26.958Z,2.13
2022-10-20T07:37:56.494Z,2.55
2022-10-20T07:40:55.652Z,2.40
2022-10-20T07:43:56.133Z,1.95
2022-10-20T07:46:28.818Z,2.03
2022-10-20T07:49:02.715Z,2.88
2022-10-20T07:51:39.042Z,2.22
2022-10-20T07:54:08.681Z,2.10
2022-10-20T07:56:40.219Z,1.90
2022-10-20T07:59:14.031Z,2.30
2022-10-20T08:01:41.757Z,2.50
2022-10-20T08:04:08.954Z,2.03
2022-10-20T08:07:01.107Z,1.95
2022-10-20T08:09:29.018Z,1.95
2022-10-20T08:11:56.992Z,2.10
2022-10-20T08:14:27.225Z,2.40
2022-10-20T08:16:59.244Z,1.15
2022-10-20T08:22:20.667Z,1.85
2022-10-20T08:24:49.122Z,1.95
2022-10-20T08:27:17.418Z,2.20
2022-10-20T08:29:50.900Z,2.05
2022-10-20T08:32:34.140Z,2.08
2022-10-20T08:35:01.106Z,1.70
2022-10-20T08:37:39.696Z,2.10
2022-10-20T08:40:08.981Z,1.90
2022-10-20T08:42:45.544Z,1.60
2022-10-20T08:45:26.342Z,1.65
2022-10-20T08:51:21.884Z,1.48
2022-10-20T08:53:58.447Z,1.65
2022-10-20T08:56:50.970Z,1.73
2022-10-20T08:59:39.691Z,1.80
2022-10-20T09:02:15.303Z,2.28
2022-10-20T09:04:54.379Z,2.03
2022-10-20T09:07:36.378Z,1.85
2022-10-20T09:10:17.231Z,1.60
2022-10-20T09:15:39.765Z,1.92
2022-10-20T09:18:14.572Z,1.33
2022-10-20T09:20:57.342Z,1.65
2022-10-20T09:23:46.627Z,1.75
2022-10-20T09:26:37.380Z,1.95
2022-10-20T09:29:37.774Z,1.60
2022-10-20T09:33:04.793Z,1.70
2022-10-20T09:36:01.023Z,1.80
2022-10-20T09:38:35.641Z,1.83
2022-10-20T09:41:09.980Z,1.70
2022-10-20T09:44:03.681Z,1.75
2022-10-20T09:46:38.733Z,1.73
2022-10-20T09:52:47.783Z,1.85
2022-10-20T09:55:37.802Z,1.98
2022-10-20T09:58:06.070Z,1.90
2022-10-20T10:00:37.852Z,1.77
2022-10-20T10:03:26.044Z,1.58
2022-10-20T10:06:29.506Z,1.77
2022-10-20T10:08:59.547Z,1.83
2022-10-20T10:11:34.099Z,1.95
2022-10-20T10:14:02.180Z,1.80
2022-10-20T10:16:40.978Z,2.00
2022-10-20T10:19:22.910Z,1.58
2022-10-20T10:22:00.050Z,1.85
2022-10-20T10:24:40.597Z,2.08
2022-10-20T10:27:25.445Z,2.08
2022-10-20T10:29:59.244Z,2.03
2022-10-20T10:32:35.278Z,1.33
2022-10-20T10:35:29.363Z,1.77
2022-10-20T10:37:59.419Z,1.70
2022-10-20T10:40:35.334Z,1.95
2022-10-20T10:43:13.997Z,2.13
2022-10-20T10:45:40.905Z,1.90
2022-10-20T10:48:23.205Z,2.20
2022-10-20T10:50:59.430Z,2.08
2022-10-20T10:53:36.117Z,2.30
2022-10-20T10:56:27.701Z,2.20
2022-10-20T10:59:23.194Z,2.00
2022-10-20T11:02:27.680Z,2.25
2022-10-20T11:05:48.804Z,2.40
2022-10-20T11:08:31.474Z,2.22
2022-10-20T11:11:18.084Z,2.22
2022-10-20T11:13:53.701Z,2.20
2022-10-20T11:16:40.249Z,2.67
2022-10-20T11:19:25.907Z,2.38
2022-10-20T11:21:59.801Z,2.20
2022-10-20T11:24:54.149Z,2.00
2022-10-20T11:27:26.283Z,2.25
2022-10-20T11:30:04.186Z,2.30
2022-10-20T11:32:42.705Z,2.15
2022-10-20T11:35:36.855Z,2.72
2022-10-20T11:38:22.843Z,2.55
2022-10-20T11:41:03.479Z,2.13
2022-10-20T11:43:39.545Z,2.13
2022-10-20T11:46:12.027Z,2.60
2022-10-20T11:48:49.097Z,2.40
2022-10-20T11:57:59.068Z,3.00
2022-10-20T12:01:07.193Z,2.70
2022-10-20T12:03:53.805Z,3.00
2022-10-20T12:06:45.465Z,2.83
2022-10-20T12:12:28.860Z,3.28
2022-10-20T12:15:06.893Z,2.90
2022-10-20T12:17:37.112Z,2.60
2022-10-20T12:20:21.051Z,3.00
2022-10-20T12:22:52.438Z,3.13
2022-10-20T12:25:27.101Z,3.00
2022-10-20T12:28:19.952Z,3.20
2022-10-20T12:31:00.135Z,2.78
2022-10-20T12:34:00.527Z,3.20
2022-10-20T12:36:38.460Z,3.20
2022-10-20T12:39:14.408Z,2.97
2022-10-20T12:42:04.526Z,2.78
2022-10-20T12:47:10.121Z,3.05
2022-10-20T12:49:45.385Z,3.15
2022-10-20T12:52:48.213Z,3.17
2022-10-20T12:55:18.973Z,3.35
2022-10-20T12:58:18.541Z,2.90
2022-10-20T13:00:47.005Z,2.90
2022-10-20T13:03:49.303Z,3.00
2022-10-20T13:06:22.810Z,2.92
2022-10-20T13:09:02.765Z,2.95
2022-10-20T13:11:40.794Z,2.83
2022-10-20T13:14:41.501Z,2.70
2022-10-20T13:17:23.974Z,2.75
2022-10-20T13:20:38.861Z,2.50
2022-10-20T13:23:13.146Z,2.17
2022-10-20T13:25:45.599Z,2.60
2022-10-20T13:28:12.917Z,2.80
2022-10-20T13:31:19.683Z,3.20
2022-10-20T13:34:05.348Z,3.00
2022-10-20T13:36:44.555Z,2.60
2022-10-20T13:39:18.951Z,2.70
2022-10-20T13:42:06.262Z,2.70
2022-10-20T13:47:47.085Z,2.80
2022-10-20T13:53:04.945Z,2.78
2022-10-20T13:56:08.292Z,2.95
2022-10-20T13:58:40.695Z,3.80
2022-10-20T14:01:12.084Z,3.08
2022-10-20T14:03:44.553Z,2.40
2022-10-20T14:06:38.103Z,2.42
2022-10-20T14:09:15.864Z,2.13
2022-10-20T14:11:52.718Z,2.78
2022-10-20T14:14:27.290Z,2.75
2022-10-20T14:17:26.139Z,2.75
2022-10-20T14:20:21.339Z,2.80
2022-10-20T14:22:49.759Z,2.80
2022-10-20T14:25:17.351Z,3.00
2022-10-20T14:27:50.224Z,3.38
2022-10-20T14:30:24.112Z,3.25
2022-10-20T14:32:57.100Z,2.67
2022-10-20T14:35:58.889Z,3.40
2022-10-20T14:38:35.517Z,3.40
2022-10-20T14:41:05.922Z,3.00
2022-10-20T14:43:45.898Z,3.40
2022-10-20T14:46:22.724Z,2.90
2022-10-20T14:48:51.603Z,3.00
2022-10-20T14:51:44.984Z,3.03
2022-10-20T14:54:31.175Z,3.03
2022-10-20T14:57:25.015Z,2.40
2022-10-20T15:00:02.966Z,2.67
2022-10-20T15:02:41.004Z,3.40
2022-10-20T15:08:34.221Z,3.58
2022-10-20T15:11:01.087Z,3.17
2022-10-20T15:13:33.706Z,3.08
2022-10-20T15:16:02.701Z,3.45
2022-10-20T15:18:31.022Z,3.20
2022-10-20T15:20:59.025Z,3.40
2022-10-20T15:23:28.434Z,3.95
2022-10-20T15:29:12.970Z,3.00
2022-10-20T15:31:40.994Z,3.30
2022-10-20T15:34:09.386Z,3.40
2022-10-20T15:36:41.862Z,3.20
2022-10-20T15:39:12.071Z,3.05
2022-10-20T15:41:39.994Z,3.50
2022-10-20T15:44:09.963Z,3.70
2022-10-20T15:47:02.984Z,3.10
2022-10-20T15:49:31.169Z,3.47
2022-10-20T15:51:59.011Z,3.33
2022-10-20T15:54:27.006Z,3.75
2022-10-20T15:56:54.935Z,3.60
2022-10-20T16:02:15.010Z,3.50
2022-10-20T16:04:42.942Z,4.07
2022-10-20T16:07:10.988Z,4.53
2022-10-20T16:09:39.117Z,3.65
2022-10-20T16:12:11.969Z,3.50
2022-10-20T16:14:39.039Z,3.90
2022-10-20T16:20:04.735Z,4.00
2022-10-20T16:22:34.098Z,3.83
2022-10-20T16:25:04.013Z,3.55
2022-10-20T16:27:38.057Z,3.55
2022-10-20T16:30:11.337Z,3.60
2022-10-20T16:32:39.197Z,4.10
2022-10-20T16:35:07.217Z,3.92
2022-10-20T16:37:39.339Z,3.45
2022-10-20T16:40:07.390Z,3.67
2022-10-20T16:42:34.953Z,3.30
2022-10-20T16:45:03.489Z,3.40
2022-10-20T16:47:30.970Z,3.30
2022-10-20T16:49:59.038Z,3.92
2022-10-20T16:52:26.964Z,3.10
2022-10-20T16:54:59.087Z,3.60
2022-10-20T16:57:26.945Z,3.80
2022-10-20T16:59:54.946Z,3.75
2022-10-20T17:02:23.335Z,4.03
2022-10-20T17:04:51.186Z,3.38
2022-10-20T17:07:19.001Z,4.18
2022-10-20T17:09:51.984Z,4.10
2022-10-20T17:12:19.256Z,3.30
2022-10-20T17:14:47.091Z,3.42
2022-10-20T17:17:14.923Z,3.53
2022-10-20T17:20:12.621Z,3.58
2022-10-20T17:22:40.971Z,3.40
2022-10-20T17:25:09.557Z,3.58
2022-10-20T17:27:36.972Z,3.33
2022-10-20T17:30:05.526Z,3.70
2022-10-20T17:32:38.212Z,3.50
2022-10-20T17:35:05.500Z,4.07
2022-10-20T17:37:34.858Z,3.45
2022-10-20T17:40:03.181Z,3.78
2022-10-20T17:42:32.685Z,3.50
2022-10-20T17:45:06.483Z,3.50
2022-10-20T17:47:34.944Z,3.42
2022-10-20T17:50:03.147Z,3.67
2022-10-20T17:52:36.241Z,3.22
2022-10-20T17:55:03.370Z,3.90
2022-10-20T17:57:31.406Z,3.75
2022-10-20T18:00:01.350Z,4.00
2022-10-20T18:02:32.966Z,3.90
2022-10-20T18:05:01.133Z,3.70
2022-10-20T18:07:34.055Z,3.40
2022-10-20T18:10:01.043Z,3.47
2022-10-20T18:12:28.939Z,3.30
2022-10-20T18:14:57.012Z,4.07
2022-10-20T18:17:25.006Z,3.30
2022-10-20T18:19:55.097Z,3.30
2022-10-20T18:22:23.312Z,3.58
2022-10-20T18:24:50.916Z,3.53
2022-10-20T18:27:24.075Z,3.40
2022-10-20T18:29:50.954Z,3.25
2022-10-20T18:32:18.955Z,3.47
2022-10-20T18:34:47.602Z,3.80
2022-10-20T18:37:17.815Z,3.53
2022-10-20T18:39:45.734Z,3.47
2022-10-20T18:42:18.971Z,3.83
2022-10-20T18:44:46.933Z,3.78
2022-10-20T18:47:19.992Z,3.38
2022-10-20T18:49:46.920Z,3.92
2022-10-20T18:52:15.015Z,4.20
2022-10-20T18:54:42.990Z,4.72
2022-10-20T18:57:10.951Z,3.55
2022-10-20T18:59:39.033Z,3.47
2022-10-20T19:02:31.226Z,3.83
2022-10-20T19:04:59.021Z,3.58
2022-10-20T19:07:26.954Z,3.67
2022-10-20T19:09:55.646Z,3.90
2022-10-20T19:12:33.989Z,4.10
2022-10-20T19:15:00.935Z,4.55
2022-10-20T19:17:33.945Z,3.88
2022-10-20T19:20:01.118Z,3.80
2022-10-20T19:22:29.492Z,3.92
2022-10-20T19:24:56.988Z,4.03
2022-10-20T19:27:29.966Z,3.80
2022-10-20T19:29:56.985Z,3.90
2022-10-20T19:32:52.703Z,3.97
2022-10-20T19:35:21.906Z,4.38
2022-10-20T19:38:20.106Z,4.25
2022-10-20T19:40:46.995Z,4.15
2022-10-20T19:46:08.751Z,4.45
2022-10-20T19:48:38.776Z,4.18
2022-10-20T19:51:09.689Z,4.15
2022-10-20T19:54:02.907Z,4.05
2022-10-20T19:56:31.432Z,4.13
2022-10-20T19:59:01.052Z,3.97
2022-10-20T20:01:29.094Z,4.25
2022-10-20T20:03:57.012Z,4.72
2022-10-20T20:06:26.445Z,4.18
2022-10-20T20:08:59.295Z,4.28
2022-10-20T20:11:29.609Z,4.20
2022-10-20T20:14:21.218Z,4.40
2022-10-20T20:16:48.997Z,4.93
2022-10-20T20:19:17.484Z,4.60
2022-10-20T20:21:45.973Z,4.13
2022-10-20T20:24:19.001Z,4.15
2022-10-20T20:26:52.002Z,4.22
2022-10-20T20:29:18.998Z,4.38
2022-10-20T20:31:48.077Z,4.57
2022-10-20T20:34:15.404Z,4.57
2022-10-20T20:39:40.017Z,5.38
2022-10-20T20:42:06.953Z,4.57
2022-10-20T20:44:39.957Z,5.38
2022-10-20T20:47:06.991Z,4.93
2022-10-20T20:49:34.977Z,6.05
2022-10-20T20:52:07.011Z,5.55
2022-10-20T20:54:34.925Z,5.05
2022-10-20T20:57:03.020Z,5.32
2022-10-20T20:59:31.149Z,5.10
2022-10-20T21:01:58.954Z,5.25
2022-10-20T21:04:30.572Z,5.22
2022-10-20T21:07:03.258Z,4.50
2022-10-20T21:09:31.311Z,5.13
2022-10-20T21:11:59.039Z,5.13
2022-10-20T21:14:57.971Z,5.10
2022-10-20T21:17:24.931Z,5.18
2022-10-20T21:19:58.558Z,4.43
2022-10-20T21:22:26.949Z,4.70
2022-10-20T21:24:54.931Z,4.80
2022-10-20T21:27:22.993Z,4.68
2022-10-20T21:29:51.368Z,4.82
2022-10-20T21:32:20.333Z,5.05
2022-10-20T21:37:38.948Z,4.40
2022-10-20T21:40:07.450Z,4.95
2022-10-20T21:42:35.129Z,5.10
2022-10-20T21:45:02.988Z,4.57
2022-10-20T21:47:56.940Z,4.93
2022-10-20T21:50:24.974Z,4.60
2022-10-20T21:52:53.017Z,5.35
2022-10-20T21:55:20.919Z,4.50
2022-10-20T21:57:50.361Z,4.50
2022-10-20T22:00:23.954Z,5.78
2022-10-20T22:02:51.126Z,5.55
2022-10-20T22:05:45.337Z,5.18
2022-10-20T22:08:17.747Z,4.75
2022-10-20T22:13:43.677Z,5.15
2022-10-20T22:16:19.306Z,5.22
2022-10-20T22:18:47.349Z,5.07
2022-10-20T22:21:44.004Z,4.90
2022-10-20T22:24:11.546Z,5.10
2022-10-20T22:26:39.361Z,4.68
2022-10-20T22:29:14.584Z,4.63
2022-10-20T22:31:43.334Z,5.25
2022-10-20T22:34:11.384Z,4.80
2022-10-20T22:36:39.650Z,4.88
2022-10-20T22:41:50.027Z,4.95
2022-10-20T22:44:42.972Z,4.65
2022-10-20T22:47:10.974Z,4.97
2022-10-20T22:49:38.936Z,5.13
2022-10-20T22:52:38.255Z,4.68
2022-10-20T22:55:05.477Z,4.82
2022-10-20T22:57:32.960Z,4.85
2022-10-20T23:00:01.118Z,5.40
2022-10-20T23:02:29.624Z,4.70
2022-10-20T23:04:57.200Z,5.03
2022-10-20T23:07:55.206Z,4.95
2022-10-20T23:13:15.093Z,5.18
2022-10-20T23:15:49.964Z,4.93
2022-10-20T23:18:16.959Z,5.50
2022-10-20T23:20:45.070Z,4.85
2022-10-20T23:23:38.993Z,5.00
2022-10-20T23:26:07.337Z,5.43
2022-10-20T23:29:03.968Z,4.65
2022-10-20T23:31:33.548Z,5.03
2022-10-20T23:36:57.429Z,5.00
2022-10-20T23:39:31.449Z,5.70
2022-10-20T23:42:07.224Z,5.13
2022-10-20T23:44:34.972Z,4.90
2022-10-20T23:47:08.118Z,5.18
2022-10-20T23:49:35.021Z,5.75
2022-10-20T23:52:03.003Z,4.95
2022-10-20T23:54:54.983Z,5.68
2022-10-20T23:57:28.002Z,5.30
2022-10-20T23:59:54.934Z,5.30
